Ballinasloe, Ireland
Current Conditions -  °F | °C
As of 7:00 PM on Tuesday 27 Jan 2015 (Local Time) from EIKN Reporting Station
Moderate Fog Moderate Fog  
Wind Chill: 38°   Ceiling: 100
Heat Index: 45°   Visibility: 0.12mi
Dew Point: 45°   Wind: 14mph
Humidity: 100%   Direction: 200°SSW
Pressure: 29.94"   Gusts: NA
Location:  53.33°N, 8.24°W
Report Text: EIKN 271900Z 20012KT 160V230 0200 FG OVC001 07/07 Q1014 NOSIG
Loading
Personal Weather Stations






























Interactive Weather Map New forecast layout! Learn more

10-Day Weather Forecast

Advertisements
Track Severe Weather on mobile